Time;durP1;ratioP1;P1;durP2;ratioP2;P2;SDS_P1;SDS_P2;PMS_P1;PMS_P2;Temp;Humidity;BMP_temperature;BMP_pressure;BME280_temperature;BME280_humidity;BME280_pressure;Samples;Min_cycle;Max_cycle;Signal;HPM_P1;HPM_P2
2024/01/08 00:00:52;;;;;;;1.80;1.60;;;16.90;42.20;;;;;;5149210;27;45320;-65
2024/01/08 00:03:19;;;;;;;1.70;1.60;;;16.90;42.10;;;;;;5149586;27;45504;-65
2024/01/08 00:05:55;;;;;;;2.03;1.67;;;16.90;42.10;;;;;;5148855;27;47296;-64
2024/01/08 00:08:22;;;;;;;1.63;1.45;;;16.90;42.10;;;;;;5148903;27;45259;-65
2024/01/08 00:10:51;;;;;;;1.80;1.52;;;16.90;42.10;;;;;;5149193;27;45274;-64
2024/01/08 00:13:17;;;;;;;1.50;1.33;;;16.90;42.10;;;;;;5149231;27;45412;-64
2024/01/08 00:15:44;;;;;;;1.73;1.33;;;16.80;42.00;;;;;;5149101;27;45658;-64
2024/01/08 00:18:11;;;;;;;1.40;1.30;;;16.80;42.00;;;;;;5148907;27;45213;-64
2024/01/08 00:20:38;;;;;;;1.90;1.58;;;16.80;42.00;;;;;;5146332;27;45292;-64
2024/01/08 00:23:05;;;;;;;1.60;1.50;;;16.80;42.00;;;;;;5149172;27;45319;-63
2024/01/08 00:25:32;;;;;;;1.77;1.60;;;16.80;41.90;;;;;;5148949;27;45558;-63
2024/01/08 00:28:00;;;;;;;1.42;1.33;;;16.90;41.90;;;;;;5145775;27;45399;-63
2024/01/08 00:30:27;;;;;;;1.02;1.02;;;16.80;41.90;;;;;;5148801;27;45400;-64
2024/01/08 00:32:54;;;;;;;1.77;1.67;;;16.80;41.90;;;;;;5149213;27;45289;-64
2024/01/08 00:35:22;;;;;;;1.55;1.45;;;16.80;41.90;;;;;;5148648;27;45306;-63
2024/01/08 00:37:48;;;;;;;1.95;1.80;;;16.80;41.90;;;;;;5148524;27;45374;-64
2024/01/08 00:40:15;;;;;;;1.90;1.50;;;16.80;41.90;;;;;;5148431;27;45436;-63
2024/01/08 00:42:42;;;;;;;1.30;1.20;;;16.80;41.90;;;;;;5149162;27;45333;-64
2024/01/08 00:45:11;;;;;;;1.60;1.50;;;16.80;41.90;;;;;;5148369;27;45408;-65
2024/01/08 00:47:38;;;;;;;1.65;1.48;;;16.80;42.40;;;;;;5148452;27;45417;-64
2024/01/08 00:50:06;;;;;;;1.58;1.33;;;16.80;41.70;;;;;;5148347;27;45429;-64
2024/01/08 00:52:33;;;;;;;1.60;1.50;;;16.80;41.70;;;;;;5148469;27;45524;-64
2024/01/08 00:55:04;;;;;;;1.85;1.33;;;16.80;41.60;;;;;;5147948;27;46719;-64
2024/01/08 00:57:31;;;;;;;1.42;1.17;;;16.80;41.60;;;;;;5147170;27;45283;-64
2024/01/08 00:59:58;;;;;;;1.48;1.20;;;16.80;41.70;;;;;;5148600;27;45202;-64
2024/01/08 01:02:26;;;;;;;1.42;1.27;;;16.80;41.60;;;;;;5148608;27;45531;-63
2024/01/08 01:04:56;;;;;;;1.60;1.27;;;16.70;41.60;;;;;;5147988;27;46377;-63
2024/01/08 01:07:23;;;;;;;1.23;1.10;;;16.80;41.60;;;;;;5148315;27;45248;-64
2024/01/08 01:09:50;;;;;;;1.30;1.20;;;16.80;41.50;;;;;;5148093;27;45317;-64
2024/01/08 01:12:17;;;;;;;1.42;1.30;;;16.80;41.40;;;;;;5148332;27;45530;-63
2024/01/08 01:14:44;;;;;;;1.95;1.20;;;16.80;41.30;;;;;;5147909;27;45443;-63
2024/01/08 01:17:10;;;;;;;1.40;1.30;;;16.80;41.30;;;;;;5148345;27;45463;-63
2024/01/08 01:19:39;;;;;;;1.42;1.33;;;16.80;41.30;;;;;;5147921;27;45437;-64
2024/01/08 01:22:06;;;;;;;1.20;1.10;;;16.70;41.20;;;;;;5148237;27;45406;-64
2024/01/08 01:24:32;;;;;;;1.25;1.15;;;16.70;41.20;;;;;;5147828;27;46385;-64
2024/01/08 01:26:59;;;;;;;1.67;1.20;;;16.70;41.20;;;;;;5147844;27;45415;-65
2024/01/08 01:29:26;;;;;;;1.42;1.33;;;16.60;41.20;;;;;;5147899;27;45289;-64
2024/01/08 01:31:53;;;;;;;1.50;1.40;;;16.70;41.30;;;;;;5147913;27;45300;-65
2024/01/08 01:34:20;;;;;;;1.88;1.10;;;16.70;41.20;;;;;;5147671;27;45470;-66
2024/01/08 01:36:48;;;;;;;1.25;1.15;;;16.70;41.10;;;;;;5147671;27;45400;-65
2024/01/08 01:39:15;;;;;;;1.10;1.10;;;16.60;41.00;;;;;;5148089;27;45359;-65
2024/01/08 01:41:42;;;;;;;1.30;1.20;;;16.60;41.00;;;;;;5147583;27;45483;-64
2024/01/08 01:44:09;;;;;;;1.15;1.05;;;16.60;40.90;;;;;;5147617;27;45841;-65
2024/01/08 01:46:39;;;;;;;1.52;1.10;;;16.60;40.90;;;;;;5147623;27;45253;-65
2024/01/08 01:49:06;;;;;;;0.90;0.90;;;16.60;41.00;;;;;;5147586;27;45375;-65
2024/01/08 01:51:33;;;;;;;1.13;1.10;;;16.60;41.00;;;;;;5148020;27;45307;-64
2024/01/08 01:54:01;;;;;;;1.20;1.10;;;16.60;41.00;;;;;;5147735;27;45615;-65
2024/01/08 01:56:28;;;;;;;1.88;1.13;;;16.60;40.90;;;;;;5147487;27;45163;-65
2024/01/08 01:58:55;;;;;;;0.90;0.90;;;16.60;40.80;;;;;;5147470;27;45391;-65
2024/01/08 02:01:22;;;;;;;3.55;1.10;;;16.60;40.80;;;;;;5147989;27;45359;-65
2024/01/08 02:03:49;;;;;;;1.17;1.10;;;16.60;40.80;;;;;;5147371;27;46380;-65
2024/01/08 02:06:16;;;;;;;1.30;1.20;;;16.60;41.40;;;;;;5147389;27;45240;-65
2024/01/08 02:08:43;;;;;;;1.08;1.00;;;16.50;40.80;;;;;;5146680;27;45211;-65
2024/01/08 02:11:11;;;;;;;1.65;0.98;;;16.50;40.80;;;;;;5151236;27;45353;-64
2024/01/08 02:13:38;;;;;;;1.00;1.00;;;16.50;40.70;;;;;;5150969;27;46536;-64
2024/01/08 02:16:05;;;;;;;1.58;1.20;;;16.50;40.70;;;;;;5151009;27;45338;-65
2024/01/08 02:18:32;;;;;;;1.20;0.95;;;16.60;40.70;;;;;;5150990;27;45331;-64
2024/01/08 02:20:59;;;;;;;0.90;0.90;;;16.50;40.60;;;;;;5150980;27;45292;-64
2024/01/08 02:23:27;;;;;;;0.95;0.95;;;16.50;40.60;;;;;;5150516;27;45696;-64
2024/01/08 02:25:54;;;;;;;1.20;0.82;;;16.50;40.60;;;;;;5150735;27;45205;-63
2024/01/08 02:28:21;;;;;;;1.00;0.90;;;16.50;40.60;;;;;;5148253;27;45251;-65
2024/01/08 02:30:48;;;;;;;0.90;0.90;;;16.50;40.60;;;;;;5150970;27;45227;-64
2024/01/08 02:33:15;;;;;;;1.17;1.17;;;16.50;40.70;;;;;;5150505;27;46740;-64
2024/01/08 02:35:42;;;;;;;0.90;0.90;;;16.50;40.70;;;;;;5148082;27;45399;-64
2024/01/08 02:38:09;;;;;;;0.70;0.70;;;16.50;40.60;;;;;;5150806;27;45370;-64
2024/01/08 02:40:37;;;;;;;0.90;0.90;;;16.50;40.60;;;;;;5150479;27;45484;-64
2024/01/08 02:43:04;;;;;;;1.75;0.93;;;16.60;40.60;;;;;;5150238;27;46576;-63
2024/01/08 02:45:32;;;;;;;1.00;1.00;;;16.50;40.60;;;;;;5150600;27;45342;-64
2024/01/08 02:47:58;;;;;;;1.60;1.00;;;16.60;40.60;;;;;;5150579;27;45468;-64
2024/01/08 02:50:25;;;;;;;1.00;1.00;;;16.50;40.60;;;;;;5150431;27;45609;-64
2024/01/08 02:52:52;;;;;;;0.80;0.80;;;16.50;40.50;;;;;;5150450;27;46498;-64
2024/01/08 02:55:19;;;;;;;0.70;0.70;;;16.50;40.60;;;;;;5150360;27;45340;-64
2024/01/08 02:57:47;;;;;;;0.80;0.80;;;16.50;40.60;;;;;;5150280;27;45398;-64
2024/01/08 03:00:15;;;;;;;0.82;0.82;;;16.40;40.50;;;;;;5150441;27;45404;-64
2024/01/08 03:02:42;;;;;;;1.65;0.90;;;16.50;40.50;;;;;;5150076;27;45415;-64
2024/01/08 03:05:09;;;;;;;1.77;1.00;;;16.50;40.50;;;;;;5150049;27;45217;-64
2024/01/08 03:07:36;;;;;;;1.02;1.02;;;16.50;40.40;;;;;;5150021;27;45369;-64
2024/01/08 03:10:03;;;;;;;1.13;1.13;;;16.50;40.40;;;;;;5150242;27;45430;-64
2024/01/08 03:12:30;;;;;;;0.93;0.85;;;16.40;40.40;;;;;;5150062;27;46755;-63
2024/01/08 03:14:59;;;;;;;0.73;0.73;;;16.40;40.50;;;;;;5149906;27;45128;-63
2024/01/08 03:17:26;;;;;;;1.10;1.00;;;16.40;40.50;;;;;;5149034;27;45412;-63
2024/01/08 03:19:52;;;;;;;1.05;0.95;;;16.40;40.50;;;;;;5149224;27;45360;-64
2024/01/08 03:22:19;;;;;;;1.15;1.15;;;16.40;40.50;;;;;;5147028;27;45444;-64
2024/01/08 03:24:46;;;;;;;0.90;0.90;;;16.40;40.50;;;;;;5148382;27;45292;-64
2024/01/08 03:27:13;;;;;;;0.90;0.90;;;16.40;40.30;;;;;;5149911;27;45183;-63
2024/01/08 03:29:41;;;;;;;1.20;1.10;;;16.40;40.30;;;;;;5147470;27;45365;-64
2024/01/08 03:32:11;;;;;;;0.90;0.90;;;16.40;40.30;;;;;;5146900;27;46397;-65
2024/01/08 03:34:48;;;;;;;1.00;0.90;;;16.40;40.30;;;;;;5149871;27;45301;-65
2024/01/08 03:37:15;;;;;;;0.90;0.90;;;16.40;40.30;;;;;;5148769;27;45443;-64
2024/01/08 03:39:42;;;;;;;0.77;0.77;;;16.40;40.30;;;;;;5149441;27;45398;-64
2024/01/08 03:42:09;;;;;;;0.90;0.90;;;16.30;40.30;;;;;;5149379;27;46269;-63
2024/01/08 03:44:36;;;;;;;1.23;1.10;;;16.30;40.90;;;;;;5149535;27;45174;-64
2024/01/08 03:47:03;;;;;;;0.95;0.90;;;16.40;40.30;;;;;;5149666;27;45251;-63
2024/01/08 03:49:31;;;;;;;0.88;0.88;;;16.40;40.20;;;;;;5149809;27;45383;-63
2024/01/08 03:51:58;;;;;;;1.83;1.15;;;16.40;40.10;;;;;;5149396;27;47299;-64
2024/01/08 03:54:25;;;;;;;1.00;0.90;;;16.40;40.10;;;;;;5149208;27;45309;-65
2024/01/08 03:56:52;;;;;;;0.90;0.82;;;16.30;40.10;;;;;;5149237;27;45212;-64
2024/01/08 03:59:19;;;;;;;1.23;0.85;;;16.30;40.10;;;;;;5146761;27;45198;-64
2024/01/08 04:01:46;;;;;;;0.80;0.80;;;16.30;40.10;;;;;;5149078;27;46638;-63
2024/01/08 04:04:13;;;;;;;1.00;0.90;;;16.30;40.10;;;;;;5149064;27;45342;-64
2024/01/08 04:07:18;;;;;;;1.10;1.00;;;16.30;40.10;;;;;;5149107;27;45509;-63
2024/01/08 04:09:45;;;;;;;1.10;1.10;;;16.40;40.00;;;;;;5149244;27;45391;-64
2024/01/08 04:12:13;;;;;;;1.10;1.00;;;16.40;40.00;;;;;;5148784;27;45436;-64
2024/01/08 04:14:40;;;;;;;0.82;0.82;;;16.40;39.80;;;;;;5148905;27;45131;-63
2024/01/08 04:17:06;;;;;;;0.90;0.90;;;16.50;39.70;;;;;;5149013;27;45292;-64
2024/01/08 04:19:33;;;;;;;0.90;0.90;;;16.60;39.60;;;;;;5149205;27;45329;-63
2024/01/08 04:22:00;;;;;;;1.00;1.00;;;16.70;39.40;;;;;;5148556;27;45387;-64
2024/01/08 04:24:28;;;;;;;0.93;0.90;;;16.80;39.20;;;;;;5148755;27;45306;-64
2024/01/08 04:26:55;;;;;;;1.30;0.80;;;16.90;39.10;;;;;;5148818;27;45303;-64
2024/01/08 04:29:22;;;;;;;1.58;1.10;;;16.90;38.80;;;;;;5148992;27;45441;-65
2024/01/08 04:31:49;;;;;;;0.80;0.80;;;17.00;38.60;;;;;;5148728;27;47855;-65
2024/01/08 04:34:19;;;;;;;1.08;0.93;;;17.10;38.60;;;;;;5149030;27;45227;-64
2024/01/08 04:36:46;;;;;;;0.70;0.70;;;17.20;38.40;;;;;;5148863;27;45192;-64
2024/01/08 04:39:14;;;;;;;0.95;0.80;;;17.20;38.90;;;;;;5148905;27;45319;-63
2024/01/08 04:41:42;;;;;;;0.90;0.90;;;17.30;38.10;;;;;;5148346;27;46538;-64
2024/01/08 04:44:09;;;;;;;0.80;0.80;;;17.30;38.00;;;;;;5148250;27;45174;-64
2024/01/08 04:46:37;;;;;;;0.75;0.75;;;17.40;37.90;;;;;;5148652;27;45182;-64
2024/01/08 04:49:04;;;;;;;0.93;0.93;;;17.50;37.90;;;;;;5148553;27;45701;-65
2024/01/08 04:51:31;;;;;;;0.75;0.75;;;17.50;37.70;;;;;;5148168;27;48445;-64
2024/01/08 04:53:58;;;;;;;1.00;0.80;;;17.60;38.20;;;;;;5148070;27;45172;-64
2024/01/08 04:56:27;;;;;;;0.90;0.90;;;17.60;37.50;;;;;;5149028;27;45336;-64
2024/01/08 04:58:56;;;;;;;0.68;0.68;;;17.60;37.40;;;;;;5148568;27;45311;-64
2024/01/08 05:01:23;;;;;;;0.60;0.60;;;17.70;37.30;;;;;;5148371;27;45409;-64
2024/01/08 05:03:49;;;;;;;0.85;0.85;;;17.70;37.20;;;;;;5148558;27;45256;-64
2024/01/08 05:06:22;;;;;;;1.05;0.80;;;17.80;37.20;;;;;;5148050;27;45313;-64
2024/01/08 05:08:49;;;;;;;1.30;0.90;;;17.80;37.10;;;;;;5148613;27;45353;-65
2024/01/08 05:11:17;;;;;;;0.80;0.80;;;17.80;37.00;;;;;;5147588;27;46327;-64
2024/01/08 05:13:44;;;;;;;2.50;0.70;;;17.90;37.00;;;;;;5147835;27;45298;-65
2024/01/08 05:16:12;;;;;;;0.80;0.80;;;17.90;37.00;;;;;;5148141;27;45390;-64
2024/01/08 05:18:40;;;;;;;0.70;0.70;;;17.90;36.80;;;;;;5148472;27;45284;-64
2024/01/08 05:21:07;;;;;;;0.88;0.80;;;17.90;37.50;;;;;;5148070;27;46760;-64
2024/01/08 05:23:34;;;;;;;0.70;0.60;;;18.00;36.80;;;;;;5147695;27;45344;-64
2024/01/08 05:26:01;;;;;;;1.55;0.65;;;18.00;36.70;;;;;;5145122;27;45489;-64
2024/01/08 05:28:28;;;;;;;0.70;0.70;;;18.00;36.70;;;;;;5148259;27;45682;-64
2024/01/08 05:30:55;;;;;;;0.82;0.73;;;18.00;37.20;;;;;;5147296;27;45222;-64
2024/01/08 05:33:24;;;;;;;1.15;0.90;;;18.10;36.60;;;;;;5148163;27;45411;-64
2024/01/08 05:35:56;;;;;;;0.82;0.82;;;18.10;36.50;;;;;;5147953;27;45396;-64
2024/01/08 05:38:24;;;;;;;0.70;0.70;;;18.10;36.50;;;;;;5147056;27;45363;-64
2024/01/08 05:40:51;;;;;;;0.70;0.70;;;18.20;36.40;;;;;;5147512;27;48459;-65
2024/01/08 05:43:18;;;;;;;0.82;0.82;;;18.10;36.30;;;;;;5149028;27;45129;-65
2024/01/08 05:45:46;;;;;;;1.98;0.85;;;18.20;36.30;;;;;;5151497;27;45389;-65
2024/01/08 05:48:13;;;;;;;1.00;0.80;;;18.20;36.30;;;;;;5151728;27;45388;-64
2024/01/08 05:50:41;;;;;;;0.90;0.90;;;18.20;36.20;;;;;;5151275;27;45370;-64
2024/01/08 05:53:08;;;;;;;0.70;0.70;;;18.20;36.20;;;;;;5151251;27;45206;-66
2024/01/08 05:55:35;;;;;;;0.70;0.70;;;18.20;36.20;;;;;;5151163;27;45407;-65
2024/01/08 05:58:02;;;;;;;0.93;0.90;;;18.20;36.20;;;;;;5150013;27;45185;-65
2024/01/08 06:00:30;;;;;;;0.80;0.80;;;18.20;36.20;;;;;;5150934;27;45422;-65
2024/01/08 06:02:57;;;;;;;0.65;0.65;;;18.20;36.20;;;;;;5150143;27;45354;-64
2024/01/08 06:05:26;;;;;;;0.60;0.60;;;18.20;36.00;;;;;;5151047;27;45408;-65
2024/01/08 06:07:55;;;;;;;0.82;0.82;;;18.20;36.00;;;;;;5151511;27;45381;-64
2024/01/08 06:10:22;;;;;;;1.27;0.95;;;18.30;36.00;;;;;;5147904;27;45336;-64
2024/01/08 06:12:51;;;;;;;0.80;0.80;;;18.20;35.90;;;;;;5150895;27;45203;-64
2024/01/08 06:15:18;;;;;;;0.70;0.70;;;18.30;36.00;;;;;;5151021;27;45316;-64
2024/01/08 06:17:48;;;;;;;1.08;1.00;;;18.30;35.90;;;;;;5150887;27;45423;-64
2024/01/08 06:20:16;;;;;;;0.85;0.85;;;18.30;35.90;;;;;;5150913;27;45231;-64
2024/01/08 06:22:45;;;;;;;0.77;0.77;;;18.30;36.00;;;;;;5150639;27;45523;-64
2024/01/08 06:25:14;;;;;;;0.88;0.88;;;18.20;35.90;;;;;;5149740;27;45404;-64
2024/01/08 06:27:42;;;;;;;0.80;0.80;;;18.30;36.00;;;;;;5150727;27;45206;-64
2024/01/08 06:30:17;;;;;;;1.10;1.00;;;18.20;36.00;;;;;;5150422;27;45663;-64
2024/01/08 06:32:44;;;;;;;1.10;1.00;;;18.30;36.00;;;;;;5150688;27;45451;-64
2024/01/08 06:35:26;;;;;;;0.88;0.82;;;18.30;35.90;;;;;;5150723;27;45455;-64
2024/01/08 06:37:53;;;;;;;0.93;0.93;;;18.30;36.50;;;;;;5149532;27;45651;-64
2024/01/08 06:40:22;;;;;;;1.02;0.93;;;18.30;35.80;;;;;;5149959;27;47555;-64
2024/01/08 06:42:51;;;;;;;1.17;0.93;;;18.20;35.80;;;;;;5150443;27;45186;-65
2024/01/08 06:45:19;;;;;;;2.78;1.02;;;18.30;35.90;;;;;;5150291;27;45458;-65
2024/01/08 06:47:54;;;;;;;1.35;0.85;;;18.30;35.90;;;;;;5150433;27;45456;-65
2024/01/08 06:50:22;;;;;;;0.70;0.68;;;18.30;35.90;;;;;;5149978;27;46561;-65
2024/01/08 06:52:51;;;;;;;1.63;0.98;;;18.30;35.80;;;;;;5150243;27;45329;-64
2024/01/08 06:55:19;;;;;;;1.10;1.00;;;18.30;35.80;;;;;;5149046;27;45373;-65
2024/01/08 06:57:50;;;;;;;0.68;0.68;;;18.30;35.80;;;;;;5150545;27;45380;-66
2024/01/08 07:00:18;;;;;;;1.83;1.02;;;18.30;35.80;;;;;;5149890;27;46559;-65
2024/01/08 07:02:45;;;;;;;0.90;0.85;;;18.30;35.80;;;;;;5150005;27;45828;-65
2024/01/08 07:05:12;;;;;;;0.90;0.90;;;18.30;35.80;;;;;;5150125;27;45423;-65
2024/01/08 07:07:40;;;;;;;1.33;1.02;;;18.30;35.80;;;;;;5150163;27;45258;-65
2024/01/08 07:10:08;;;;;;;1.30;1.00;;;18.30;35.70;;;;;;5149623;27;46389;-65
2024/01/08 07:12:36;;;;;;;1.20;1.10;;;18.30;35.70;;;;;;5149778;27;45280;-65
2024/01/08 07:15:05;;;;;;;2.10;1.10;;;18.30;35.60;;;;;;5149097;27;45338;-65
2024/01/08 07:17:33;;;;;;;0.88;0.88;;;18.30;35.60;;;;;;5148921;27;45697;-65
2024/01/08 07:20:00;;;;;;;1.48;1.38;;;18.30;35.60;;;;;;5149859;27;47596;-65
2024/01/08 07:22:27;;;;;;;1.02;0.93;;;18.30;35.60;;;;;;5149942;27;45236;-64
2024/01/08 07:24:57;;;;;;;2.38;1.10;;;18.30;35.60;;;;;;5150103;27;45276;-66
2024/01/08 07:27:23;;;;;;;1.20;1.10;;;18.30;35.60;;;;;;5150038;27;45518;-65
2024/01/08 07:29:50;;;;;;;1.70;1.00;;;18.30;35.60;;;;;;5149607;27;46635;-65
2024/01/08 07:32:19;;;;;;;1.63;1.08;;;18.30;35.50;;;;;;5149730;27;45290;-66
2024/01/08 07:34:46;;;;;;;1.20;1.10;;;18.30;35.50;;;;;;5146907;27;45241;-65
2024/01/08 07:37:13;;;;;;;0.80;0.80;;;18.30;35.50;;;;;;5149806;27;45175;-64
2024/01/08 07:39:40;;;;;;;1.20;1.10;;;18.30;35.50;;;;;;5149769;27;45437;-66
2024/01/08 07:42:08;;;;;;;1.13;1.02;;;18.30;35.50;;;;;;5149538;27;45235;-64
2024/01/08 07:44:35;;;;;;;1.27;1.00;;;18.30;35.40;;;;;;5149542;27;45263;-64
2024/01/08 07:47:03;;;;;;;2.42;1.15;;;18.30;35.40;;;;;;5149980;27;45238;-63
2024/01/08 07:49:31;;;;;;;1.15;0.93;;;18.30;35.40;;;;;;5149419;27;45278;-64
2024/01/08 07:51:58;;;;;;;0.95;0.95;;;18.30;35.40;;;;;;5149355;27;45366;-67
2024/01/08 07:54:25;;;;;;;1.10;1.00;;;18.30;35.40;;;;;;5149440;27;45187;-64
2024/01/08 07:56:52;;;;;;;1.20;1.10;;;18.30;35.40;;;;;;5149544;27;45493;-64
2024/01/08 07:59:19;;;;;;;1.23;0.80;;;18.30;35.50;;;;;;5148022;27;45294;-67
2024/01/08 08:01:46;;;;;;;0.93;0.93;;;18.20;35.40;;;;;;5149247;27;45334;-65
2024/01/08 08:04:13;;;;;;;1.20;1.10;;;18.30;35.40;;;;;;5149689;27;45454;-65
2024/01/08 08:06:46;;;;;;;1.48;1.10;;;18.30;35.40;;;;;;5149034;27;45565;-65
2024/01/08 08:09:13;;;;;;;1.35;0.93;;;18.20;35.40;;;;;;5146546;27;46313;-65
2024/01/08 08:11:40;;;;;;;0.80;0.80;;;18.20;35.40;;;;;;5149224;27;45233;-65
2024/01/08 08:14:07;;;;;;;1.17;1.08;;;18.20;36.00;;;;;;5149174;27;45194;-64
2024/01/08 08:16:34;;;;;;;1.17;1.10;;;18.20;35.30;;;;;;5149353;27;45365;-64
2024/01/08 08:19:02;;;;;;;1.77;1.30;;;18.20;35.30;;;;;;5148879;27;46161;-63
2024/01/08 08:21:30;;;;;;;1.20;1.10;;;18.20;35.30;;;;;;5149107;27;45324;-66
2024/01/08 08:23:58;;;;;;;1.05;0.98;;;18.20;35.30;;;;;;5148798;27;45290;-63
2024/01/08 08:26:25;;;;;;;1.10;0.88;;;18.20;35.90;;;;;;5149239;27;45459;-63
2024/01/08 08:28:52;;;;;;;1.15;1.13;;;18.20;35.30;;;;;;5148696;27;46454;-64
2024/01/08 08:31:19;;;;;;;2.28;1.08;;;18.20;35.30;;;;;;5149163;27;45315;-65
2024/01/08 08:33:46;;;;;;;1.13;1.00;;;18.20;35.30;;;;;;5148861;27;45232;-65
2024/01/08 08:36:14;;;;;;;0.85;0.85;;;18.20;35.30;;;;;;5149145;27;45499;-66
2024/01/08 08:38:41;;;;;;;1.88;1.02;;;18.20;35.20;;;;;;5149139;27;46839;-64
2024/01/08 08:41:09;;;;;;;2.13;0.98;;;18.30;35.20;;;;;;5148607;27;45346;-65
2024/01/08 08:43:37;;;;;;;1.08;1.08;;;18.30;35.10;;;;;;5148839;27;45286;-65
2024/01/08 08:46:05;;;;;;;1.55;1.20;;;18.30;35.10;;;;;;5148047;27;45357;-69
2024/01/08 08:48:31;;;;;;;2.28;1.10;;;18.30;34.90;;;;;;5148178;27;45388;-67
2024/01/08 08:50:58;;;;;;;2.45;1.40;;;18.30;34.70;;;;;;5144923;27;45417;-66
2024/01/08 08:53:25;;;;;;;2.88;1.10;;;18.30;34.80;;;;;;5148678;27;45307;-68
2024/01/08 08:55:52;;;;;;;1.35;1.27;;;18.30;34.80;;;;;;5149062;27;45402;-68
2024/01/08 08:58:23;;;;;;;1.77;1.10;;;18.40;34.80;;;;;;5148948;27;46945;-67
2024/01/08 09:00:51;;;;;;;0.90;0.90;;;18.40;34.80;;;;;;5148449;27;45400;-68
2024/01/08 09:03:18;;;;;;;1.65;1.27;;;18.40;34.70;;;;;;5149323;27;45253;-68
2024/01/08 09:05:45;;;;;;;2.65;1.08;;;18.40;34.70;;;;;;5148982;27;45628;-67
2024/01/08 09:08:12;;;;;;;2.45;1.10;;;18.30;34.70;;;;;;5148370;27;46364;-68
2024/01/08 09:10:39;;;;;;;5.32;1.50;;;18.40;34.80;;;;;;5147270;27;45389;-67
2024/01/08 09:13:06;;;;;;;1.55;1.20;;;18.40;34.70;;;;;;5149059;27;45311;-66
2024/01/08 09:15:36;;;;;;;1.95;1.23;;;18.30;34.60;;;;;;5148726;27;45396;-66
2024/01/08 09:18:03;;;;;;;1.85;1.00;;;18.40;34.80;;;;;;5147173;27;46382;-67
2024/01/08 09:20:31;;;;;;;2.13;1.00;;;18.40;34.80;;;;;;5148616;27;45411;-66
2024/01/08 09:22:57;;;;;;;3.00;1.08;;;18.40;34.50;;;;;;5148634;27;45205;-67
2024/01/08 09:25:24;;;;;;;2.47;1.25;;;18.40;34.60;;;;;;5145233;27;45702;-65
2024/01/08 09:27:51;;;;;;;7.10;1.42;;;18.40;34.70;;;;;;5144657;27;46549;-67
2024/01/08 09:30:19;;;;;;;3.22;1.40;;;18.40;34.80;;;;;;5135203;27;45741;-64
2024/01/08 09:32:47;;;;;;;2.60;1.55;;;18.40;34.90;;;;;;5146072;27;45514;-63
2024/01/08 09:35:14;;;;;;;3.40;1.30;;;18.40;34.90;;;;;;5145600;27;45452;-65
2024/01/08 09:37:42;;;;;;;2.60;1.40;;;18.40;34.80;;;;;;5145604;27;45457;-64
2024/01/08 09:40:10;;;;;;;1.70;1.20;;;18.40;34.90;;;;;;5144989;27;45548;-63
2024/01/08 09:42:39;;;;;;;1.20;1.20;;;18.40;34.80;;;;;;5145616;27;45442;-65
2024/01/08 09:45:10;;;;;;;1.45;1.35;;;18.40;34.90;;;;;;5143345;27;45472;-65
2024/01/08 09:47:37;;;;;;;4.53;1.48;;;18.40;35.00;;;;;;5140240;27;45354;-64
2024/01/08 09:50:06;;;;;;;4.25;1.60;;;18.40;35.10;;;;;;5146092;27;45388;-63
2024/01/08 09:52:33;;;;;;;4.45;1.48;;;18.40;35.10;;;;;;5146387;27;45276;-65
2024/01/08 09:54:59;;;;;;;2.80;1.60;;;18.40;35.10;;;;;;5147418;27;45347;-64
2024/01/08 09:57:26;;;;;;;1.23;1.00;;;18.40;35.10;;;;;;5140821;27;45643;-64
2024/01/08 09:59:53;;;;;;;2.15;1.15;;;18.40;35.20;;;;;;5144016;27;45500;-65
2024/01/08 10:02:20;;;;;;;2.03;1.45;;;18.50;35.30;;;;;;5146443;27;45482;-64
2024/01/08 10:04:47;;;;;;;5.05;1.33;;;18.50;35.20;;;;;;5141799;27;45477;-66
2024/01/08 10:07:15;;;;;;;1.35;1.25;;;18.50;35.20;;;;;;5145414;27;46379;-65
2024/01/08 10:09:42;;;;;;;3.45;1.40;;;18.60;35.10;;;;;;5144004;27;45479;-65
2024/01/08 10:12:10;;;;;;;1.77;1.50;;;18.60;35.00;;;;;;5146749;27;45241;-65
2024/01/08 10:14:37;;;;;;;2.83;1.67;;;18.70;35.60;;;;;;5145072;27;45542;-65
2024/01/08 10:17:04;;;;;;;2.47;1.63;;;18.60;33.90;;;;;;5143085;27;45519;-67
2024/01/08 10:19:31;;;;;;;3.63;1.40;;;18.60;33.90;;;;;;5145693;27;45401;-66
2024/01/08 10:22:07;;;;;;;1.58;1.25;;;18.60;34.20;;;;;;5145234;27;45253;-67
2024/01/08 10:24:35;;;;;;;1.98;1.50;;;18.60;34.40;;;;;;5146361;27;45436;-67
2024/01/08 10:27:03;;;;;;;2.35;1.35;;;18.60;34.40;;;;;;5143296;27;45361;-65
2024/01/08 10:29:30;;;;;;;1.35;1.17;;;18.60;34.40;;;;;;5147997;27;45352;-67
2024/01/08 10:31:57;;;;;;;1.75;1.33;;;18.70;34.40;;;;;;5142611;27;45287;-65
2024/01/08 10:34:25;;;;;;;2.90;1.60;;;18.70;34.20;;;;;;5133273;27;45458;-64
2024/01/08 10:36:52;;;;;;;2.78;1.30;;;18.70;34.20;;;;;;5132793;27;46598;-65
2024/01/08 10:39:20;;;;;;;2.15;1.27;;;18.70;34.10;;;;;;5142019;27;45439;-64
2024/01/08 10:41:48;;;;;;;1.10;1.00;;;18.80;34.90;;;;;;5146409;27;45426;-65
2024/01/08 10:44:15;;;;;;;2.15;1.55;;;18.70;34.40;;;;;;5150531;27;45625;-65
2024/01/08 10:46:46;;;;;;;2.47;1.83;;;18.80;34.50;;;;;;5149105;27;46671;-64
2024/01/08 10:49:15;;;;;;;4.10;1.48;;;18.80;34.40;;;;;;5149817;27;45286;-65
2024/01/08 10:51:44;;;;;;;1.85;1.70;;;18.80;34.50;;;;;;5149799;27;45349;-64
2024/01/08 10:54:11;;;;;;;4.30;1.50;;;18.70;34.50;;;;;;5150347;27;45506;-65
2024/01/08 10:56:38;;;;;;;3.88;1.50;;;18.80;34.60;;;;;;5146502;27;46398;-65
2024/01/08 10:59:08;;;;;;;3.97;1.90;;;18.80;34.70;;;;;;5148894;27;45388;-65
2024/01/08 11:01:35;;;;;;;3.17;1.70;;;18.70;34.70;;;;;;5149320;27;45340;-65
2024/01/08 11:04:02;;;;;;;1.70;1.60;;;18.80;34.70;;;;;;5149700;27;45393;-65
2024/01/08 11:06:29;;;;;;;2.47;1.50;;;18.70;34.70;;;;;;5138270;27;45475;-64
2024/01/08 11:08:56;;;;;;;3.92;1.75;;;18.70;34.80;;;;;;5139569;27;45400;-64
2024/01/08 11:11:23;;;;;;;2.03;1.80;;;18.70;34.90;;;;;;5135978;27;45426;-64
2024/01/08 11:13:50;;;;;;;2.03;1.60;;;18.70;34.90;;;;;;5147751;27;45574;-65
2024/01/08 11:16:20;;;;;;;3.20;1.55;;;18.70;34.90;;;;;;5149063;27;47290;-63
2024/01/08 11:18:47;;;;;;;2.40;2.00;;;18.70;34.80;;;;;;5148935;27;45293;-65
2024/01/08 11:21:14;;;;;;;2.00;1.80;;;18.70;34.90;;;;;;5148876;27;45806;-65
2024/01/08 11:23:42;;;;;;;2.70;1.65;;;18.70;34.90;;;;;;5148699;27;45583;-63
2024/01/08 11:26:10;;;;;;;3.25;1.60;;;18.70;35.00;;;;;;5148771;27;46320;-62
2024/01/08 11:28:38;;;;;;;3.92;2.00;;;18.70;35.10;;;;;;5145957;27;45500;-64
2024/01/08 11:31:41;;;;;;;2.25;2.03;;;18.70;35.10;;;;;;5149222;27;45479;-64
2024/01/08 11:34:29;;;;;;;4.53;2.08;;;18.70;35.00;;;;;;5145226;27;45395;-65
2024/01/08 11:37:00;;;;;;;3.72;1.67;;;18.70;34.90;;;;;;5147946;27;46372;-64
2024/01/08 11:39:27;;;;;;;4.10;2.08;;;18.70;34.90;;;;;;5148605;27;45344;-65
2024/01/08 11:41:54;;;;;;;3.92;2.35;;;18.80;35.00;;;;;;5147465;27;45662;-66
2024/01/08 11:44:21;;;;;;;4.05;2.10;;;18.80;35.00;;;;;;5146906;27;45300;-66
2024/01/08 11:46:48;;;;;;;3.13;2.05;;;18.80;34.80;;;;;;5145527;27;46476;-67
2024/01/08 11:49:17;;;;;;;2.45;1.77;;;18.90;34.90;;;;;;5148389;27;45332;-64
2024/01/08 11:51:45;;;;;;;2.50;2.03;;;18.90;34.80;;;;;;5139339;27;45938;-63
2024/01/08 11:54:14;;;;;;;2.53;1.67;;;18.90;34.70;;;;;;5128120;27;45468;-65
2024/01/08 11:56:41;;;;;;;3.55;2.00;;;19.00;34.80;;;;;;5128025;27;45432;-65
2024/01/08 11:59:09;;;;;;;3.25;1.85;;;19.00;34.60;;;;;;5144249;27;45374;-68
2024/01/08 12:01:35;;;;;;;2.58;1.77;;;19.00;34.80;;;;;;5149751;27;45229;-68
2024/01/08 12:04:02;;;;;;;3.80;1.80;;;19.00;34.70;;;;;;5149399;27;45305;-67
2024/01/08 12:06:31;;;;;;;6.80;1.83;;;19.00;34.60;;;;;;5148636;27;46390;-67
2024/01/08 12:08:57;;;;;;;9.15;2.28;;;19.00;35.30;;;;;;5148045;27;45349;-67
2024/01/08 12:11:26;;;;;;;2.60;1.75;;;19.00;34.60;;;;;;5148603;27;45401;-66
2024/01/08 12:13:53;;;;;;;5.35;2.60;;;19.10;34.60;;;;;;5146463;27;45422;-67
2024/01/08 12:16:20;;;;;;;5.15;1.90;;;19.00;34.60;;;;;;5141967;27;45432;-68
2024/01/08 12:18:47;;;;;;;2.88;1.60;;;19.00;34.70;;;;;;5145692;27;44860;-68
2024/01/08 12:21:14;;;;;;;2.67;1.90;;;18.90;34.70;;;;;;5146277;27;45722;-67
2024/01/08 12:23:42;;;;;;;2.65;2.20;;;18.90;34.90;;;;;;5144376;27;45581;-69
2024/01/08 12:26:09;;;;;;;3.65;2.30;;;18.80;34.90;;;;;;5140724;27;48310;-68
2024/01/08 12:28:36;;;;;;;3.35;2.03;;;18.80;35.10;;;;;;5145356;27;45470;-68
2024/01/08 12:31:03;;;;;;;2.28;1.80;;;18.70;35.00;;;;;;5143705;27;45492;-69
2024/01/08 12:33:30;;;;;;;5.60;1.85;;;18.70;35.20;;;;;;5143883;27;45384;-68
2024/01/08 12:35:57;;;;;;;3.38;2.40;;;18.60;35.30;;;;;;5148578;27;47698;-66
2024/01/08 12:38:24;;;;;;;2.78;2.17;;;18.60;35.40;;;;;;5147290;27;45313;-69
2024/01/08 12:40:53;;;;;;;5.20;2.08;;;18.50;35.40;;;;;;5147209;27;45448;-67
2024/01/08 12:43:20;;;;;;;1.95;1.85;;;18.40;35.20;;;;;;5145786;27;45455;-68
2024/01/08 12:45:47;;;;;;;3.13;2.10;;;18.40;35.50;;;;;;5147999;27;45331;-67
2024/01/08 12:48:14;;;;;;;4.43;2.33;;;18.40;35.80;;;;;;5148346;27;45261;-70
2024/01/08 12:50:41;;;;;;;4.18;2.00;;;18.30;35.70;;;;;;5147842;27;45308;-68